Time;durP1;ratioP1;P1;durP2;ratioP2;P2;SDS_P1;SDS_P2;PMS_P1;PMS_P2;Temp;Humidity;BMP_temperature;BMP_pressure;BME280_temperature;BME280_humidity;BME280_pressure;Samples;Min_cycle;Max_cycle;Signal;HPM_P1;HPM_P2
2021/12/01 00:00:41;;;;;;;3.05;2.17;;;-0.70;99.30;;;;;;5015916;28;20033;-86
2021/12/01 00:03:06;;;;;;;4.28;1.80;;;-0.70;99.10;;;;;;5016640;28;20033;-84
2021/12/01 00:05:33;;;;;;;5.28;1.98;;;-0.80;99.30;;;;;;5027229;28;20026;-84
2021/12/01 00:08:00;;;;;;;3.97;2.05;;;-0.80;99.50;;;;;;5031769;28;20034;-83
2021/12/01 00:10:29;;;;;;;3.40;1.08;;;-0.80;99.60;;;;;;5033367;28;20056;-85
2021/12/01 00:12:55;;;;;;;2.65;1.75;;;-0.80;99.80;;;;;;5035197;28;20046;-86
2021/12/01 00:15:21;;;;;;;1.60;1.23;;;-0.80;99.90;;;;;;5014163;28;20057;-84
2021/12/01 00:17:48;;;;;;;1.70;1.60;;;-0.90;99.90;;;;;;5029317;28;20030;-86
2021/12/01 00:20:16;;;;;;;2.22;1.73;;;-0.90;99.90;;;;;;5017105;28;20044;-87
2021/12/01 00:22:43;;;;;;;4.25;2.90;;;-0.90;99.90;;;;;;5016006;28;20027;-89
2021/12/01 00:25:11;;;;;;;2.72;1.92;;;-0.90;99.90;;;;;;5005136;28;20435;-90
2021/12/01 00:27:37;;;;;;;3.40;1.52;;;-0.90;99.90;;;;;;4998849;28;20514;-84
2021/12/01 00:30:06;;;;;;;2.15;1.70;;;-0.90;99.90;;;;;;5025231;28;20368;-88
2021/12/01 00:32:34;;;;;;;2.47;1.70;;;-0.90;99.90;;;;;;5017221;28;20026;-87
2021/12/01 00:35:01;;;;;;;3.45;1.60;;;-0.90;99.90;;;;;;5019880;28;20056;-84
2021/12/01 00:37:27;;;;;;;3.70;1.40;;;-0.90;99.90;;;;;;5023654;28;20121;-84
2021/12/01 00:39:53;;;;;;;1.80;1.52;;;-1.00;99.90;;;;;;5015578;28;20030;-87
2021/12/01 00:42:19;;;;;;;1.50;1.20;;;-1.00;99.90;;;;;;5015855;28;20033;-86
2021/12/01 00:44:47;;;;;;;3.75;1.90;;;-1.00;99.90;;;;;;5019390;28;20093;-85
2021/12/01 00:47:14;;;;;;;7.80;2.78;;;-1.00;99.90;;;;;;5023331;28;20018;-85
2021/12/01 00:49:41;;;;;;;1.90;1.35;;;-1.00;99.90;;;;;;4997125;28;20076;-84
2021/12/01 00:52:08;;;;;;;2.33;1.35;;;-1.00;99.90;;;;;;5015407;28;20030;-84
2021/12/01 00:54:34;;;;;;;1.58;1.48;;;-1.00;99.90;;;;;;5015540;28;20117;-85
2021/12/01 00:57:00;;;;;;;1.50;1.40;;;-1.00;99.90;;;;;;5021725;28;20124;-84
2021/12/01 00:59:26;;;;;;;2.20;1.52;;;-1.00;99.90;;;;;;5026212;28;20021;-85
2021/12/01 01:01:53;;;;;;;6.50;1.60;;;-1.00;99.90;;;;;;5021778;28;20030;-85
2021/12/01 01:04:20;;;;;;;1.67;1.33;;;-1.00;99.90;;;;;;5018125;28;20022;-86
2021/12/01 01:06:46;;;;;;;1.30;1.10;;;-1.00;99.90;;;;;;5014632;28;20268;-86
2021/12/01 01:09:12;;;;;;;2.08;1.70;;;-1.00;99.90;;;;;;5014265;28;20037;-85
2021/12/01 01:17:18;;;;;;;1.45;1.35;;;-1.00;99.90;;;;;;5014908;28;20080;-85
2021/12/01 01:19:43;;;;;;;5.68;1.75;;;-1.00;99.90;;;;;;5015726;28;20076;-85
2021/12/01 01:22:09;;;;;;;2.42;1.30;;;-1.00;99.90;;;;;;5014898;28;20029;-85
2021/12/01 01:24:35;;;;;;;5.45;1.38;;;-1.00;99.90;;;;;;5013234;28;20018;-84
2021/12/01 01:27:02;;;;;;;2.90;1.88;;;-1.00;99.90;;;;;;5014246;28;20030;-84
2021/12/01 01:29:28;;;;;;;1.48;1.15;;;-1.00;99.90;;;;;;4994623;28;20025;-85
2021/12/01 01:31:57;;;;;;;2.45;1.85;;;-1.00;99.90;;;;;;4996184;28;20027;-88
2021/12/01 01:34:24;;;;;;;2.05;1.30;;;-1.00;99.90;;;;;;4998377;28;20084;-87
2021/12/01 01:36:50;;;;;;;;;;;-1.00;99.90;;;;;;4998171;28;20031;-88
2021/12/01 01:39:16;;;;;;;2.67;1.50;;;-1.00;99.90;;;;;;5002422;28;20378;-87
2021/12/01 01:41:42;;;;;;;2.58;1.60;;;-1.00;99.90;;;;;;5003816;28;20026;-89
2021/12/01 01:44:08;;;;;;;2.90;1.30;;;-1.00;99.90;;;;;;4998142;28;20023;-86
2021/12/01 01:46:37;;;;;;;2.45;1.20;;;-1.00;99.90;;;;;;5009977;28;20037;-87
2021/12/01 01:49:11;;;;;;;1.92;1.60;;;-1.00;99.90;;;;;;5005777;28;20022;-87
2021/12/01 01:51:37;;;;;;;2.42;1.67;;;-1.00;99.90;;;;;;5003925;28;20062;-86
2021/12/01 01:54:06;;;;;;;2.00;1.50;;;-1.00;99.90;;;;;;4997958;28;20023;-89
2021/12/01 01:56:32;;;;;;;2.63;1.58;;;-1.00;99.90;;;;;;5015757;28;20029;-85
2021/12/01 01:58:58;;;;;;;1.60;1.50;;;-0.90;99.90;;;;;;5017405;28;20018;-85
2021/12/01 02:03:56;;;;;;;4.03;1.75;;;-0.90;99.90;;;;;;5016825;28;20029;-86
2021/12/01 02:06:25;;;;;;;3.60;1.50;;;-0.90;99.90;;;;;;5018617;28;20559;-86
2021/12/01 02:08:58;;;;;;;3.95;1.60;;;-0.90;99.90;;;;;;5018647;28;20022;-85
2021/12/01 02:11:25;;;;;;;4.03;1.70;;;-0.90;99.90;;;;;;5016435;28;20042;-85
2021/12/01 02:13:51;;;;;;;1.55;1.45;;;-0.90;99.90;;;;;;5017336;28;20025;-86
2021/12/01 02:16:19;;;;;;;2.05;1.65;;;-0.90;99.90;;;;;;5015466;28;20038;-86
2021/12/01 02:18:45;;;;;;;1.65;1.15;;;-0.80;99.90;;;;;;5018131;28;20033;-86
2021/12/01 02:21:14;;;;;;;2.20;1.52;;;-0.80;99.90;;;;;;5018885;28;20037;-86
2021/12/01 02:23:46;;;;;;;2.42;1.50;;;-0.90;99.90;;;;;;5021325;28;20048;-84
2021/12/01 02:26:14;;;;;;;1.98;1.45;;;-0.80;99.90;;;;;;5016373;28;20045;-85
2021/12/01 02:28:42;;;;;;;3.03;1.50;;;-0.80;99.90;;;;;;5001428;28;20026;-85
2021/12/01 02:31:09;;;;;;;7.07;2.35;;;-0.80;99.90;;;;;;5010671;28;20030;-82
2021/12/01 02:33:35;;;;;;;2.17;1.50;;;-0.90;99.90;;;;;;5017475;28;20406;-83
2021/12/01 02:36:02;;;;;;;4.78;1.98;;;-0.90;99.90;;;;;;5017348;28;20038;-83
2021/12/01 02:38:28;;;;;;;3.08;2.03;;;-0.90;99.90;;;;;;5018276;28;20018;-84
2021/12/01 02:40:54;;;;;;;5.03;1.58;;;-0.90;99.90;;;;;;5017812;28;20029;-83
2021/12/01 02:43:24;;;;;;;1.92;1.50;;;-0.90;99.90;;;;;;5017009;28;20120;-82
2021/12/01 02:45:54;;;;;;;2.65;2.03;;;-0.90;99.90;;;;;;5016529;28;20382;-82
2021/12/01 02:48:21;;;;;;;1.90;1.23;;;-0.90;99.90;;;;;;5017651;28;20022;-85
2021/12/01 02:50:48;;;;;;;3.10;1.20;;;-0.90;99.90;;;;;;5016193;28;20026;-83
2021/12/01 02:53:20;;;;;;;2.42;1.70;;;-0.90;99.90;;;;;;5017772;28;20022;-83
2021/12/01 02:55:53;;;;;;;4.20;1.85;;;-0.90;99.90;;;;;;5017676;28;20076;-84
2021/12/01 02:58:20;;;;;;;3.40;1.58;;;-0.90;99.90;;;;;;5018291;28;20116;-84
2021/12/01 03:00:47;;;;;;;3.05;2.17;;;-0.90;99.90;;;;;;5017228;28;20018;-83
2021/12/01 03:03:13;;;;;;;1.98;1.30;;;-0.90;99.80;;;;;;5017291;28;20026;-84
2021/12/01 03:05:40;;;;;;;2.30;1.35;;;-0.90;99.70;;;;;;5017450;28;20033;-85
2021/12/01 03:08:07;;;;;;;1.70;1.60;;;-0.90;99.70;;;;;;5017499;28;20018;-83
2021/12/01 03:10:33;;;;;;;2.90;1.85;;;-0.90;99.60;;;;;;5017949;28;20036;-84
2021/12/01 03:12:59;;;;;;;2.95;1.83;;;-0.80;99.60;;;;;;5018305;28;20128;-82
2021/12/01 03:15:25;;;;;;;2.78;1.80;;;-0.90;99.60;;;;;;5024780;28;20487;-82
2021/12/01 03:17:51;;;;;;;2.17;1.60;;;-0.80;99.60;;;;;;5023471;28;20463;-83
2021/12/01 03:20:20;;;;;;;2.15;1.48;;;-0.80;99.40;;;;;;5019749;28;20040;-82
2021/12/01 03:22:46;;;;;;;3.50;1.52;;;-0.80;99.30;;;;;;5016928;28;20108;-83
2021/12/01 03:25:14;;;;;;;4.40;2.55;;;-0.90;99.20;;;;;;5016157;28;20100;-84
2021/12/01 03:27:40;;;;;;;2.15;1.85;;;-0.90;99.10;;;;;;5016106;28;20022;-82
2021/12/01 03:30:11;;;;;;;4.65;1.70;;;-0.90;99.10;;;;;;5016326;28;20022;-83
2021/12/01 03:32:37;;;;;;;3.55;1.55;;;-0.90;99.00;;;;;;5015837;28;20049;-82
2021/12/01 03:35:11;;;;;;;1.20;1.10;;;-0.80;98.70;;;;;;5016324;28;20044;-84
2021/12/01 03:37:38;;;;;;;1.67;1.38;;;-0.90;98.60;;;;;;5016392;28;20033;-84
2021/12/01 03:40:05;;;;;;;2.20;2.00;;;-0.90;98.70;;;;;;5016221;28;20018;-82
2021/12/01 03:42:31;;;;;;;3.55;1.75;;;-0.90;98.80;;;;;;5015906;28;20033;-83
2021/12/01 03:44:57;;;;;;;3.03;1.50;;;-0.90;98.60;;;;;;5014700;28;20447;-81
2021/12/01 03:47:24;;;;;;;2.92;2.15;;;-0.90;98.70;;;;;;5017030;28;20121;-82
2021/12/01 03:49:51;;;;;;;2.97;1.83;;;-0.90;98.70;;;;;;5017815;28;20018;-86
2021/12/01 03:52:17;;;;;;;2.63;1.67;;;-0.90;98.60;;;;;;5020727;28;20498;-89
2021/12/01 03:54:56;;;;;;;3.05;2.05;;;-0.90;98.50;;;;;;5018088;28;20168;-89
2021/12/01 03:57:22;;;;;;;3.13;1.95;;;-0.90;98.50;;;;;;5018496;28;20029;-87
2021/12/01 03:59:50;;;;;;;2.30;1.55;;;-0.90;98.40;;;;;;5017791;28;20022;-86
2021/12/01 04:02:15;;;;;;;;;;;-0.90;98.30;;;;;;5019374;28;20030;-89
2021/12/01 04:04:41;;;;;;;2.17;1.58;;;-0.90;98.40;;;;;;5020229;28;19984;-87
2021/12/01 04:07:07;;;;;;;3.60;2.05;;;-0.90;98.70;;;;;;5018113;28;20061;-86
2021/12/01 04:09:35;;;;;;;4.57;1.98;;;-0.90;98.80;;;;;;5018315;28;20097;-86
2021/12/01 04:12:01;;;;;;;;;;;-0.90;98.40;;;;;;5018019;28;20495;-87
2021/12/01 04:14:27;;;;;;;2.50;2.13;;;-0.90;98.40;;;;;;5017712;28;19911;-87
2021/12/01 04:16:52;;;;;;;2.50;2.13;;;-0.90;98.60;;;;;;5019702;28;20034;-87
2021/12/01 04:19:18;;;;;;;4.35;2.03;;;-0.90;98.80;;;;;;5017532;28;20026;-85
2021/12/01 04:21:45;;;;;;;4.15;2.08;;;-0.90;98.80;;;;;;5017777;28;20022;-87
2021/12/01 04:24:11;;;;;;;2.80;2.08;;;-0.90;98.90;;;;;;5015948;28;20026;-87
2021/12/01 04:26:37;;;;;;;4.03;2.15;;;-0.80;98.90;;;;;;5017681;28;20106;-86
2021/12/01 04:29:05;;;;;;;3.40;2.60;;;-0.80;98.90;;;;;;5019500;28;20046;-86
2021/12/01 04:31:33;;;;;;;3.97;1.85;;;-0.80;98.70;;;;;;5016730;28;20506;-86
2021/12/01 04:34:00;;;;;;;3.20;2.22;;;-0.80;98.60;;;;;;5017977;28;20479;-88
2021/12/01 04:36:29;;;;;;;2.05;1.58;;;-0.80;98.40;;;;;;5017186;28;20165;-88
2021/12/01 04:38:56;;;;;;;3.92;2.20;;;-0.70;98.40;;;;;;5016812;28;20033;-87
2021/12/01 04:41:23;;;;;;;3.47;1.77;;;-0.70;98.00;;;;;;5023611;28;20419;-86
2021/12/01 04:43:49;;;;;;;3.50;2.80;;;-0.70;97.80;;;;;;5019239;28;20042;-86
2021/12/01 04:46:17;;;;;;;3.47;2.60;;;-0.70;97.70;;;;;;5006690;28;20503;-86
2021/12/01 04:48:43;;;;;;;3.15;2.13;;;-0.70;97.80;;;;;;4997245;28;20031;-85
2021/12/01 04:51:09;;;;;;;2.20;1.95;;;-0.70;97.80;;;;;;5008341;28;20053;-84
2021/12/01 04:53:35;;;;;;;3.97;3.58;;;-0.60;97.60;;;;;;4998249;28;20035;-87
2021/12/01 04:56:01;;;;;;;3.95;2.13;;;-0.60;97.70;;;;;;4995249;28;20034;-85
2021/12/01 04:58:28;;;;;;;4.88;3.58;;;-0.60;97.90;;;;;;5001965;28;20080;-87
2021/12/01 05:00:56;;;;;;;2.63;2.10;;;-0.60;97.70;;;;;;5015138;28;20014;-84
2021/12/01 05:03:22;;;;;;;3.28;2.10;;;-0.60;97.70;;;;;;5015238;28;20391;-86
2021/12/01 05:05:48;;;;;;;4.13;2.30;;;-0.60;97.80;;;;;;5014538;28;20026;-85
2021/12/01 05:08:13;;;;;;;5.82;2.95;;;-0.60;97.80;;;;;;5016395;28;20032;-86
2021/12/01 05:10:39;;;;;;;3.60;2.80;;;-0.60;97.70;;;;;;5015522;28;20037;-86
2021/12/01 05:13:05;;;;;;;4.35;2.33;;;-0.60;97.60;;;;;;5014947;28;20065;-85
2021/12/01 05:15:31;;;;;;;5.30;2.42;;;-0.60;97.40;;;;;;5010630;28;20480;-85
2021/12/01 05:17:57;;;;;;;6.28;3.38;;;-0.60;97.60;;;;;;4995574;28;20038;-86
2021/12/01 05:20:23;;;;;;;5.25;3.55;;;-0.60;97.30;;;;;;4997095;28;20051;-86
2021/12/01 05:22:48;;;;;;;8.52;4.78;;;-0.60;97.40;;;;;;5002714;28;20108;-86
2021/12/01 05:25:14;;;;;;;4.00;2.72;;;-0.60;97.80;;;;;;5016774;28;20078;-85
2021/12/01 05:27:40;;;;;;;6.80;3.10;;;-0.60;97.60;;;;;;5015221;28;20021;-85
2021/12/01 05:30:06;;;;;;;3.40;2.70;;;-0.60;97.50;;;;;;5014586;28;20053;-84
2021/12/01 05:32:33;;;;;;;6.00;4.10;;;-0.60;97.20;;;;;;5006391;28;20022;-87
2021/12/01 05:34:59;;;;;;;2.88;2.42;;;-0.70;97.10;;;;;;5003717;28;20034;-85
2021/12/01 05:37:25;;;;;;;4.53;3.05;;;-0.60;97.00;;;;;;5018231;28;20038;-85
2021/12/01 05:39:51;;;;;;;3.85;2.45;;;-0.60;97.20;;;;;;4997861;28;20033;-88
2021/12/01 05:42:17;;;;;;;8.85;5.03;;;-0.60;97.40;;;;;;4998519;28;20030;-84
2021/12/01 05:44:44;;;;;;;5.28;2.83;;;-0.60;97.10;;;;;;5001999;28;20079;-87
2021/12/01 05:47:11;;;;;;;5.40;2.70;;;-0.60;97.20;;;;;;4999969;28;20054;-85
2021/12/01 05:49:44;;;;;;;4.32;2.67;;;-0.60;96.90;;;;;;5016253;28;20066;-85
2021/12/01 05:52:15;;;;;;;3.33;2.70;;;-0.60;96.90;;;;;;5004372;28;20018;-85
2021/12/01 05:54:43;;;;;;;4.60;2.63;;;-0.60;97.10;;;;;;4999838;28;20496;-84
2021/12/01 05:57:10;;;;;;;4.65;2.80;;;-0.60;97.10;;;;;;5016175;28;20035;-84
2021/12/01 05:59:36;;;;;;;3.85;3.05;;;-0.70;97.00;;;;;;5015224;28;20026;-87
2021/12/01 06:02:02;;;;;;;6.35;2.47;;;-0.60;96.80;;;;;;5018792;28;20030;-86
2021/12/01 06:04:28;;;;;;;4.07;2.72;;;-0.60;96.70;;;;;;5018788;28;20097;-88
2021/12/01 06:06:54;;;;;;;5.70;2.78;;;-0.60;96.80;;;;;;5018315;28;20033;-87
2021/12/01 06:09:20;;;;;;;3.38;2.50;;;-0.60;97.00;;;;;;5019464;28;20022;-86
2021/12/01 06:11:47;;;;;;;4.85;3.38;;;-0.60;97.30;;;;;;5020542;28;20045;-87
2021/12/01 06:14:14;;;;;;;;;;;-0.60;97.20;;;;;;5019377;28;20014;-87
2021/12/01 06:16:40;;;;;;;3.35;2.38;;;-0.70;97.10;;;;;;5018429;28;20339;-86
2021/12/01 06:19:06;;;;;;;5.70;2.72;;;-0.70;97.30;;;;;;5018562;28;20105;-83
2021/12/01 06:21:32;;;;;;;3.47;2.25;;;-0.70;97.40;;;;;;5017736;28;20049;-85
2021/12/01 06:23:58;;;;;;;5.88;3.13;;;-0.70;97.30;;;;;;5016785;28;20022;-83
2021/12/01 06:26:24;;;;;;;3.90;2.65;;;-0.70;97.20;;;;;;5014072;28;20475;-84
2021/12/01 06:28:50;;;;;;;4.75;2.80;;;-0.60;97.10;;;;;;5017726;28;20471;-85
2021/12/01 06:31:16;;;;;;;5.60;3.65;;;-0.70;96.90;;;;;;4998881;28;20026;-82
2021/12/01 06:33:42;;;;;;;3.78;2.63;;;-0.60;96.80;;;;;;4996297;28;20033;-85
2021/12/01 06:36:08;;;;;;;4.63;3.17;;;-0.60;96.40;;;;;;4997386;28;20113;-84
2021/12/01 06:38:34;;;;;;;5.78;2.67;;;-0.60;96.60;;;;;;4998249;28;20026;-85
2021/12/01 06:41:00;;;;;;;4.53;2.65;;;-0.60;96.60;;;;;;5001017;28;20018;-88
2021/12/01 06:43:26;;;;;;;4.60;2.40;;;-0.60;96.60;;;;;;5002490;28;20050;-85
2021/12/01 06:45:52;;;;;;;4.82;3.05;;;-0.60;96.70;;;;;;5025491;28;20025;-88
2021/12/01 06:48:18;;;;;;;5.38;3.30;;;-0.60;96.60;;;;;;5023492;28;20110;-85
2021/12/01 06:50:44;;;;;;;6.93;3.25;;;-0.60;96.60;;;;;;5022258;28;20080;-84
2021/12/01 06:53:09;;;;;;;6.53;3.53;;;-0.60;96.40;;;;;;5017986;28;20483;-84
2021/12/01 06:55:35;;;;;;;4.30;2.65;;;-0.60;96.30;;;;;;5016180;28;20027;-83
2021/12/01 06:58:01;;;;;;;2.97;2.42;;;-0.60;96.40;;;;;;5016822;28;20607;-87
2021/12/01 07:00:27;;;;;;;3.95;2.78;;;-0.60;96.80;;;;;;4998955;28;20337;-82
2021/12/01 07:02:53;;;;;;;5.50;3.45;;;-0.60;96.70;;;;;;5000745;28;20026;-88
2021/12/01 07:05:19;;;;;;;5.55;2.83;;;-0.60;96.70;;;;;;4995932;28;20041;-84
2021/12/01 07:07:45;;;;;;;5.13;2.80;;;-0.60;96.70;;;;;;5002402;28;20357;-84
2021/12/01 07:10:12;;;;;;;4.60;2.40;;;-0.60;96.90;;;;;;4996489;28;20026;-83
2021/12/01 07:12:40;;;;;;;3.35;2.67;;;-0.60;97.10;;;;;;4995927;28;20134;-83
2021/12/01 07:15:10;;;;;;;3.55;3.15;;;-0.60;97.00;;;;;;4996600;28;20457;-83
2021/12/01 07:17:36;;;;;;;3.83;2.83;;;-0.60;97.00;;;;;;4997035;28;20038;-83
2021/12/01 07:20:03;;;;;;;3.45;2.20;;;-0.60;96.90;;;;;;5000224;28;20536;-85
2021/12/01 07:22:29;;;;;;;5.82;3.50;;;-0.60;97.30;;;;;;5016206;28;20026;-84
2021/12/01 07:24:58;;;;;;;5.80;3.85;;;-0.60;97.20;;;;;;5016028;28;20022;-84
2021/12/01 07:27:24;;;;;;;3.97;2.55;;;-0.60;97.10;;;;;;5016170;28;20030;-84
2021/12/01 07:29:50;;;;;;;4.18;3.22;;;-0.60;97.10;;;;;;5016002;28;20049;-85
2021/12/01 07:32:15;;;;;;;7.13;2.90;;;-0.60;97.10;;;;;;5018829;28;20037;-84
2021/12/01 07:34:42;;;;;;;7.20;3.47;;;-0.60;97.00;;;;;;5016655;28;20026;-86
2021/12/01 07:37:18;;;;;;;4.85;3.05;;;-0.60;96.90;;;;;;5015539;28;20034;-84
2021/12/01 07:39:45;;;;;;;3.47;2.45;;;-0.60;96.70;;;;;;5016282;28;20037;-83
2021/12/01 07:42:15;;;;;;;3.08;2.28;;;-0.70;96.70;;;;;;5016016;28;20026;-82
2021/12/01 07:44:40;;;;;;;3.67;2.58;;;-0.70;96.60;;;;;;5014694;28;20026;-83
2021/12/01 07:47:07;;;;;;;4.15;2.25;;;-0.70;96.80;;;;;;5016580;28;20047;-83
2021/12/01 07:49:33;;;;;;;4.90;2.50;;;-0.70;97.10;;;;;;5020618;28;20025;-82
2021/12/01 07:52:00;;;;;;;3.72;2.30;;;-0.70;97.20;;;;;;5021123;28;20018;-83
2021/12/01 07:54:25;;;;;;;4.95;2.88;;;-0.70;97.00;;;;;;5023478;28;20125;-85
2021/12/01 07:56:51;;;;;;;3.72;2.60;;;-0.70;97.00;;;;;;5018591;28;20117;-83
2021/12/01 07:59:17;;;;;;;5.70;3.42;;;-0.70;97.00;;;;;;5016348;28;20048;-83
2021/12/01 08:01:43;;;;;;;6.13;2.88;;;-0.70;97.10;;;;;;5016284;28;20510;-85
2021/12/01 08:04:10;;;;;;;6.45;3.28;;;-0.70;97.20;;;;;;5016109;28;20479;-84
2021/12/01 08:06:37;;;;;;;3.47;2.50;;;-0.70;97.40;;;;;;5017316;28;20026;-86
2021/12/01 08:09:04;;;;;;;3.65;2.47;;;-0.70;97.20;;;;;;5017123;28;20026;-83
2021/12/01 08:11:30;;;;;;;3.85;2.38;;;-0.70;97.00;;;;;;5015646;28;20046;-84
2021/12/01 08:13:56;;;;;;;5.53;3.05;;;-0.70;97.20;;;;;;5014131;28;20026;-84
2021/12/01 08:16:22;;;;;;;5.80;3.10;;;-0.70;97.10;;;;;;5014519;28;20037;-87
2021/12/01 08:18:51;;;;;;;5.60;3.55;;;-0.70;96.80;;;;;;5015885;28;20018;-83
2021/12/01 08:21:24;;;;;;;6.00;3.47;;;-0.70;96.80;;;;;;5016476;28;20018;-84
2021/12/01 08:23:52;;;;;;;7.82;3.50;;;-0.70;97.10;;;;;;5016084;28;20101;-83
2021/12/01 08:26:18;;;;;;;;;;;-0.70;97.30;;;;;;5015085;28;20045;-84
2021/12/01 08:28:46;;;;;;;4.60;3.20;;;-0.70;97.30;;;;;;5014879;28;19906;-83
2021/12/01 08:31:15;;;;;;;7.15;4.40;;;-0.70;97.30;;;;;;5015086;28;20068;-85
2021/12/01 08:33:42;;;;;;;5.97;3.50;;;-0.70;97.10;;;;;;5015117;28;20098;-84
2021/12/01 08:36:10;;;;;;;6.82;3.80;;;-0.70;97.00;;;;;;5014575;28;20036;-83
2021/12/01 08:38:37;;;;;;;5.70;3.00;;;-0.70;96.90;;;;;;5014780;28;20037;-84
2021/12/01 08:41:04;;;;;;;6.30;3.53;;;-0.70;97.20;;;;;;5015059;28;20038;-84
2021/12/01 08:43:30;;;;;;;5.93;2.95;;;-0.70;97.40;;;;;;5015071;28;20037;-84
2021/12/01 08:45:57;;;;;;;6.47;3.30;;;-0.70;97.10;;;;;;5013414;28;20018;-84
2021/12/01 08:48:23;;;;;;;10.07;4.13;;;-0.70;97.10;;;;;;5014718;28;20069;-83
2021/12/01 08:50:49;;;;;;;4.03;2.92;;;-0.70;97.10;;;;;;5014651;28;20483;-82
2021/12/01 08:53:15;;;;;;;6.22;3.33;;;-0.70;97.00;;;;;;5014942;28;20364;-84
2021/12/01 08:55:41;;;;;;;5.45;3.00;;;-0.70;97.10;;;;;;5013170;28;20037;-84
2021/12/01 08:58:12;;;;;;;4.53;3.65;;;-0.60;97.20;;;;;;5014133;28;20060;-82
2021/12/01 09:00:46;;;;;;;3.80;3.00;;;-0.60;97.00;;;;;;5014615;28;20041;-83
2021/12/01 09:03:17;;;;;;;7.60;3.65;;;-0.60;97.10;;;;;;5014312;28;20033;-83
2021/12/01 09:05:45;;;;;;;6.80;3.42;;;-0.60;97.00;;;;;;5014084;28;20427;-84
2021/12/01 09:08:12;;;;;;;5.03;3.85;;;-0.60;97.00;;;;;;5014208;28;20026;-83
2021/12/01 09:10:38;;;;;;;6.10;4.18;;;-0.60;97.10;;;;;;5018919;28;20030;-84
2021/12/01 09:13:06;;;;;;;3.50;3.13;;;-0.60;97.20;;;;;;5017095;28;20049;-83
2021/12/01 09:15:32;;;;;;;;;;;-0.60;97.00;;;;;;5017071;28;20029;-83
2021/12/01 09:17:58;;;;;;;5.82;3.50;;;-0.60;96.90;;;;;;5016756;28;20153;-83
2021/12/01 09:20:25;;;;;;;6.45;3.67;;;-0.60;97.20;;;;;;5013997;28;20026;-83
2021/12/01 09:22:52;;;;;;;2.78;2.13;;;-0.60;97.10;;;;;;5011961;28;20026;-83
2021/12/01 09:25:18;;;;;;;5.22;2.95;;;-0.60;96.90;;;;;;5013150;28;20474;-83
2021/12/01 09:27:46;;;;;;;5.73;3.07;;;-0.60;96.60;;;;;;5013148;28;20107;-83
2021/12/01 09:30:14;;;;;;;5.28;4.38;;;-0.60;96.90;;;;;;5013332;28;20021;-85
2021/12/01 09:32:40;;;;;;;5.72;3.83;;;-0.60;97.00;;;;;;5013374;28;20052;-82
2021/12/01 09:35:08;;;;;;;2.63;2.33;;;-0.60;96.50;;;;;;5012726;28;20037;-84
2021/12/01 09:37:34;;;;;;;4.18;2.70;;;-0.60;96.50;;;;;;5014853;28;20061;-83
2021/12/01 09:40:02;;;;;;;7.07;3.92;;;-0.60;96.70;;;;;;5027651;28;20044;-81
2021/12/01 09:42:29;;;;;;;3.88;3.20;;;-0.70;96.60;;;;;;5021114;28;20061;-83
2021/12/01 09:44:56;;;;;;;9.02;3.53;;;-0.70;96.50;;;;;;5014643;28;20073;-83
2021/12/01 09:47:22;;;;;;;5.10;3.60;;;-0.70;96.40;;;;;;5014509;28;20501;-81
2021/12/01 09:49:51;;;;;;;5.32;3.60;;;-0.60;96.80;;;;;;5014413;28;20082;-83
2021/12/01 09:52:18;;;;;;;5.75;2.30;;;-0.70;97.00;;;;;;5011521;28;20453;-84
2021/12/01 09:54:44;;;;;;;6.55;3.08;;;-0.70;97.40;;;;;;5014330;28;20046;-83
2021/12/01 09:57:13;;;;;;;6.15;3.33;;;-0.70;97.40;;;;;;5014887;28;20063;-83
2021/12/01 09:59:41;;;;;;;6.13;2.88;;;-0.70;97.50;;;;;;5027544;28;20534;-82
2021/12/01 10:02:07;;;;;;;4.45;3.13;;;-0.70;97.70;;;;;;5030645;28;20040;-83
2021/12/01 10:04:36;;;;;;;4.20;2.90;;;-0.70;97.80;;;;;;5025650;28;20022;-84
2021/12/01 10:07:22;;;;;;;7.40;4.15;;;-0.80;97.80;;;;;;5017931;28;20030;-84
2021/12/01 10:09:56;;;;;;;4.47;2.97;;;-0.80;97.10;;;;;;5015587;28;20026;-82
2021/12/01 10:12:42;;;;;;;6.80;3.05;;;-0.80;96.90;;;;;;5013583;28;20057;-83
2021/12/01 10:15:08;;;;;;;5.18;3.05;;;-0.80;97.20;;;;;;5014294;28;20203;-83
2021/12/01 10:17:35;;;;;;;8.68;4.28;;;-0.80;97.30;;;;;;5013791;28;20119;-83
2021/12/01 10:20:18;;;;;;;6.28;4.28;;;-0.80;97.30;;;;;;5015308;28;20022;-85
2021/12/01 10:23:15;;;;;;;3.42;2.55;;;-0.80;96.90;;;;;;5013291;28;20105;-85
2021/12/01 10:25:42;;;;;;;6.03;3.63;;;-0.80;97.20;;;;;;5011842;28;20030;-83
2021/12/01 10:28:13;;;;;;;6.03;3.07;;;-0.70;97.40;;;;;;5013137;28;20125;-83
2021/12/01 10:30:42;;;;;;;13.20;4.03;;;-0.80;97.40;;;;;;5013800;28;20493;-84
2021/12/01 10:33:16;;;;;;;4.78;3.08;;;-0.70;97.50;;;;;;5012963;28;20033;-85
2021/12/01 10:35:43;;;;;;;3.95;3.08;;;-0.70;97.40;;;;;;5013597;28;20018;-83
2021/12/01 10:38:10;;;;;;;4.75;3.63;;;-0.70;97.50;;;;;;5015475;28;20105;-85
2021/12/01 10:40:37;;;;;;;4.90;3.45;;;-0.70;97.40;;;;;;5017445;28;20026;-84
2021/12/01 10:43:06;;;;;;;5.28;3.42;;;-0.70;97.30;;;;;;5019128;28;20022;-83
2021/12/01 10:45:33;;;;;;;4.18;3.03;;;-0.70;97.60;;;;;;5018317;28;20053;-83
2021/12/01 10:48:00;;;;;;;4.95;2.95;;;-0.70;97.90;;;;;;5016883;28;20026;-85
2021/12/01 10:50:31;;;;;;;6.60;4.18;;;-0.70;97.70;;;;;;5016936;28;20101;-83
2021/12/01 10:53:12;;;;;;;3.70;3.13;;;-0.70;97.60;;;;;;5016595;28;20018;-84
2021/12/01 10:55:44;;;;;;;4.03;3.47;;;-0.70;97.70;;;;;;5015215;28;20026;-84
2021/12/01 10:58:10;;;;;;;4.68;3.53;;;-0.70;97.60;;;;;;5011823;28;20031;-83
2021/12/01 11:00:39;;;;;;;9.32;4.13;;;-0.70;97.40;;;;;;4997063;28;20033;-83
2021/12/01 11:03:20;;;;;;;9.50;3.92;;;-0.70;97.00;;;;;;4996917;28;20089;-84
2021/12/01 11:05:48;;;;;;;4.72;2.78;;;-0.60;96.70;;;;;;4998594;28;20034;-84
2021/12/01 11:08:25;;;;;;;5.13;3.17;;;-0.60;96.80;;;;;;4996821;28;20014;-84
2021/12/01 11:10:59;;;;;;;5.95;3.70;;;-0.60;96.50;;;;;;4996399;28;20084;-83
2021/12/01 11:13:27;;;;;;;3.15;2.53;;;-0.70;97.00;;;;;;4996958;28;20042;-83
2021/12/01 11:16:03;;;;;;;5.20;3.35;;;-0.70;97.20;;;;;;5001973;28;20045;-83
2021/12/01 11:18:31;;;;;;;4.35;2.63;;;-0.70;97.30;;;;;;5017371;28;20108;-84
2021/12/01 11:21:03;;;;;;;8.30;2.60;;;-0.80;97.20;;;;;;5018107;28;20034;-83
2021/12/01 11:23:31;;;;;;;3.83;2.65;;;-0.80;97.20;;;;;;5019588;28;20104;-83
2021/12/01 11:26:07;;;;;;;2.50;1.77;;;-0.90;97.20;;;;;;5016814;28;20076;-83
2021/12/01 11:28:39;;;;;;;4.20;2.60;;;-0.90;97.20;;;;;;5017197;28;20022;-84
2021/12/01 11:31:18;;;;;;;4.60;1.98;;;-1.00;97.10;;;;;;5016761;28;20029;-85
2021/12/01 11:33:44;;;;;;;4.10;2.17;;;-1.00;96.70;;;;;;5023199;28;20528;-83
2021/12/01 11:36:15;;;;;;;3.67;2.85;;;-1.10;95.50;;;;;;5024643;28;20022;-84
2021/12/01 11:38:42;;;;;;;4.30;2.10;;;-1.10;95.30;;;;;;5017152;28;20202;-84
2021/12/01 11:41:09;;;;;;;5.28;2.25;;;-1.10;95.00;;;;;;5015948;28;20018;-83
2021/12/01 11:43:37;;;;;;;;;;;-1.10;94.80;;;;;;5015812;28;20026;-82
2021/12/01 11:46:03;;;;;;;2.08;1.88;;;-1.10;94.80;;;;;;5015399;28;19905;-84
2021/12/01 11:48:33;;;;;;;2.30;1.85;;;-1.10;94.60;;;;;;5015347;28;20105;-84
2021/12/01 11:51:07;;;;;;;3.80;2.25;;;-1.10;94.70;;;;;;5017268;28;20454;-84
2021/12/01 11:53:37;;;;;;;4.35;2.28;;;-1.10;94.40;;;;;;5016033;28;20109;-86
2021/12/01 11:56:32;;;;;;;2.83;1.95;;;-1.10;94.30;;;;;;5016407;28;20034;-83
2021/12/01 11:59:18;;;;;;;4.65;2.17;;;-1.10;93.50;;;;;;5016045;28;20453;-83
2021/12/01 12:01:52;;;;;;;2.72;2.28;;;-1.10;93.50;;;;;;5015530;28;20085;-85
2021/12/01 12:04:24;;;;;;;3.67;2.15;;;-1.20;93.50;;;;;;5016598;28;20025;-83
2021/12/01 12:06:57;;;;;;;11.30;2.63;;;-1.20;93.70;;;;;;5016648;28;20113;-85
2021/12/01 12:09:23;;;;;;;4.57;1.85;;;-1.20;93.60;;;;;;5016298;28;20097;-83
2021/12/01 12:11:58;;;;;;;4.65;2.20;;;-1.20;93.60;;;;;;5015144;28;20533;-83
2021/12/01 12:14:30;;;;;;;4.10;2.55;;;-1.30;94.40;;;;;;5021757;28;20052;-84
2021/12/01 12:17:18;;;;;;;5.53;2.53;;;-1.30;94.70;;;;;;5019727;28;20030;-84
2021/12/01 12:19:49;;;;;;;5.75;2.78;;;-1.30;94.70;;;;;;5017755;28;20026;-81
2021/12/01 12:22:32;;;;;;;12.20;2.78;;;-1.30;94.50;;;;;;5015606;28;20033;-82
2021/12/01 12:24:59;;;;;;;3.20;2.30;;;-1.30;94.10;;;;;;5014408;28;20042;-84
2021/12/01 12:27:41;;;;;;;4.97;2.95;;;-1.30;94.50;;;;;;5015557;28;20036;-83
2021/12/01 12:30:10;;;;;;;3.35;1.98;;;-1.30;94.40;;;;;;5013822;28;20076;-82
2021/12/01 12:32:37;;;;;;;3.35;2.08;;;-1.40;94.50;;;;;;5014456;28;20025;-83
2021/12/01 12:35:17;;;;;;;4.27;2.73;;;-1.40;94.60;;;;;;5014440;28;20037;-84
2021/12/01 12:37:43;;;;;;;3.08;2.03;;;-1.40;94.60;;;;;;5015047;28;20342;-82
2021/12/01 12:40:32;;;;;;;2.15;1.85;;;-1.40;94.60;;;;;;5014840;28;20521;-83
2021/12/01 12:43:10;;;;;;;3.50;2.38;;;-1.40;94.30;;;;;;5012757;28;20026;-84
2021/12/01 12:45:38;;;;;;;7.18;2.30;;;-1.40;94.10;;;;;;5014362;28;20129;-86
2021/12/01 12:48:28;;;;;;;5.18;2.22;;;-1.50;93.90;;;;;;5013951;28;20147;-84
2021/12/01 12:51:25;;;;;;;8.10;3.17;;;-1.50;93.60;;;;;;5014127;28;20082;-83
2021/12/01 12:54:00;;;;;;;4.93;2.90;;;-1.50;93.60;;;;;;5014671;28;20029;-85
2021/12/01 12:56:32;;;;;;;5.15;2.25;;;-1.50;93.80;;;;;;5013119;28;20030;-84
2021/12/01 12:59:28;;;;;;;4.22;2.28;;;-1.50;94.20;;;;;;5013173;28;20022;-82
2021/12/01 13:02:09;;;;;;;3.53;3.13;;;-1.50;94.90;;;;;;5014456;28;20026;-83